Gurli — SLEG — position and weather

sailwx.info

Track history (hours):
 
Tides and Currents Weather Stations Pressure Air Temp Water Temp Dewpoint Dewpoint Depression Visibility Wind Speed Wind Dir Waves Ship Positions

Gurli

Last reported at 2018-May-26 02:28 UTC. Time now 2018-May-26 02:28 UTC.
Position N 59°20' E 018°05'.

Length 21 m.

Type: Passenger vessel. MMSI: 265687640.

Date/timePositionNaut miles runAvg speedWind from/ knotsBaromVisibWave heightAir tempDewpointWater temp
2018-May-26 02:28N 59°20' E 018°05'0 0.0
2018-May-26 01:58N 59°20' E 018°05'0 0.0
2018-May-26 01:28N 59°20' E 018°05'0 0.0
2018-May-26 00:58N 59°20' E 018°05'0 0.0
2018-May-26 00:28N 59°20' E 018°05'0 0.0
2018-May-25 23:58N 59°20' E 018°05'0 0.0
2018-May-25 23:28N 59°20' E 018°05'0 0.0
2018-May-25 22:58N 59°20' E 018°05'0 0.0
2018-May-25 22:28N 59°20' E 018°05'0 0.0
2018-May-25 21:58N 59°20' E 018°05'0 0.0
2018-May-25 21:28N 59°20' E 018°05'0 0.0
2018-May-25 20:58N 59°20' E 018°05'0 0.0
2018-May-25 20:28N 59°20' E 018°05'0 0.0
2018-May-25 19:58N 59°20' E 018°05'0 0.0
2018-May-25 19:28N 59°20' E 018°05'1 2.7
2018-May-25 19:00N 59°19' E 018°07'0 0.0
2018-May-25 18:30N 59°19' E 018°07'1 1.4
2018-May-25 18:00N 59°19' E 018°06'2 3.5
2018-May-25 17:29N 59°19' E 018°09'2 4.5
2018-May-25 17:00N 59°20' E 018°05'1 3.0
2018-May-25 16:30N 59°19' E 018°07'2 3.6
2018-May-25 16:00N 59°21' E 018°09'1 2.8
2018-May-25 15:28N 59°19' E 018°09'2 4.9
2018-May-25 14:58N 59°20' E 018°05'2 3.3
2018-May-25 14:30N 59°19' E 018°07'2 3.4
2018-May-25 14:00N 59°21' E 018°09'1 3.0
2018-May-25 13:30N 59°19' E 018°09'2 3.8
2018-May-25 13:00N 59°20' E 018°05'0 0.3
2018-May-25 12:30N 59°20' E 018°05'0 0.0
2018-May-25 12:00N 59°20' E 018°05'0 0.3
2018-May-25 11:30N 59°20' E 018°05'2 3.7
2018-May-25 11:00N 59°19' E 018°08'1 1.6
2018-May-25 10:30N 59°19' E 018°07'1 1.4
2018-May-25 10:00N 59°19' E 018°06'2 4.0
2018-May-25 09:29N 59°19' E 018°10'1 3.1
2018-May-25 09:00N 59°21' E 018°09'2 3.6
2018-May-25 08:30N 59°19' E 018°07'2 3.0
2018-May-25 07:58N 59°20' E 018°05'2 3.7
2018-May-25 07:30N 59°19' E 018°07'2 3.6
2018-May-25 07:00N 59°21' E 018°08'2 3.7
2018-May-25 06:30N 59°19' E 018°10'3 5.1
2018-May-25 05:59N 59°20' E 018°05'2 4.6
2018-May-25 05:30N 59°19' E 018°09'1 2.9
2018-May-25 05:00N 59°21' E 018°09'2 3.4
2018-May-25 04:29N 59°19' E 018°07'2 3.1
2018-May-25 03:59N 59°20' E 018°05'0 0.0
2018-May-25 03:29N 59°20' E 018°05'0 0.0
2018-May-25 02:59N 59°20' E 018°05'0 0.0
2018-May-25 02:29N 59°20' E 018°05'0 0.0
2018-May-25 01:59N 59°20' E 018°05'0 0.0
2018-May-25 01:29N 59°20' E 018°05'0 0.0
2018-May-25 00:59N 59°20' E 018°05'0 0.0
2018-May-25 00:29N 59°20' E 018°05'0 0.0
2018-May-24 23:59N 59°20' E 018°05'0 0.0
2018-May-24 23:29N 59°20' E 018°05'0 0.0
2018-May-24 22:59N 59°20' E 018°05'0 0.0
2018-May-24 22:29N 59°20' E 018°05'0 0.0
2018-May-24 21:59N 59°20' E 018°05'0 0.0
2018-May-24 21:29N 59°20' E 018°05'0 0.0
2018-May-24 20:59N 59°20' E 018°05'0 0.0
2018-May-24 20:29N 59°20' E 018°05'0 0.0
2018-May-24 19:59N 59°20' E 018°05'0 0.0
2018-May-24 19:29N 59°20' E 018°05'1 3.1
2018-May-24 19:00N 59°19' E 018°07'0 0.8
2018-May-24 18:29N 59°19' E 018°07'0 0.7
2018-May-24 18:00N 59°19' E 018°06'2 3.2
2018-May-24 17:30N 59°19' E 018°09'2 4.0
2018-May-24 16:59N 59°20' E 018°05'1 2.6
2018-May-24 16:30N 59°19' E 018°07'2 3.6
2018-May-24 16:00N 59°21' E 018°09'2 3.0
2018-May-24 15:30N 59°19' E 018°10'2 4.3
2018-May-24 15:00N 59°20' E 018°05'1 1.7
2018-May-24 14:30N 59°19' E 018°07'2 3.9
2018-May-24 13:59N 59°20' E 018°09'1 2.7
2018-May-24 13:29N 59°19' E 018°10'2 0.3
2018-May-24 08:59N 59°21' E 018°09'2 3.6
2018-May-24 08:30N 59°19' E 018°07'2 3.1
2018-May-24 07:58N 59°20' E 018°05'2 3.8
2018-May-24 07:30N 59°19' E 018°07'2 3.5
2018-May-24 07:00N 59°21' E 018°08'2 3.1
2018-May-24 06:29N 59°19' E 018°09'2 4.7
2018-May-24 05:59N 59°20' E 018°05'3 5.5
2018-May-24 05:30N 59°19' E 018°10'1 3.0
2018-May-24 05:00N 59°21' E 018°09'2 3.6
2018-May-24 04:30N 59°19' E 018°07'2 3.1
2018-May-24 04:00N 59°20' E 018°05'0 0.0
2018-May-24 03:30N 59°20' E 018°05'0 0.0
2018-May-24 03:00N 59°20' E 018°05'0 0.0
2018-May-24 02:30N 59°20' E 018°05'0 0.0
2018-May-24 01:57N 59°20' E 018°05'0 0.0
2018-May-24 01:30N 59°20' E 018°05'0 0.0
2018-May-24 01:00N 59°20' E 018°05'0 0.0
2018-May-24 00:30N 59°20' E 018°05'0 0.0
2018-May-24 00:00N 59°20' E 018°05'0 0.0
2018-May-23 23:30N 59°20' E 018°05'0 0.0
2018-May-23 23:00N 59°20' E 018°05'0 0.0
2018-May-23 22:30N 59°20' E 018°05'0 0.0
2018-May-23 22:00N 59°20' E 018°05'0 0.0
2018-May-23 21:30N 59°20' E 018°05'0 0.0
2018-May-23 21:00N 59°20' E 018°05'0 0.0
2018-May-23 20:30N 59°20' E 018°05'0 0.0
2018-May-23 20:00N 59°20' E 018°05'0 0.0
2018-May-23 19:30N 59°20' E 018°05'2 3.1
2018-May-23 19:00N 59°19' E 018°07'0 0.9
2018-May-23 18:30N 59°19' E 018°07'1 1.4
2018-May-23 18:00N 59°19' E 018°06'2 4.1
2018-May-23 17:30N 59°19' E 018°10'2 4.3
2018-May-23 17:00N 59°20' E 018°05'1 1.8
2018-May-23 16:30N 59°19' E 018°07'2 4.0
2018-May-23 16:00N 59°21' E 018°09'1 2.9
2018-May-23 15:29N 59°19' E 018°10'2 4.4
2018-May-23 15:00N 59°20' E 018°05'1 1.5
2018-May-23 14:30N 59°19' E 018°07'2 3.6
2018-May-23 14:00N 59°20' E 018°09'1 1.7
2018-May-23 13:30N 59°19' E 018°10'2 4.2
2018-May-23 13:00N 59°20' E 018°05'0 0.7
2018-May-23 12:28N 59°20' E 018°05'0 0.0
2018-May-23 11:58N 59°20' E 018°05'0 0.0
2018-May-23 11:30N 59°20' E 018°05'2 3.0
2018-May-23 11:00N 59°19' E 018°07'0 0.1
2018-May-23 10:30N 59°19' E 018°07'1 2.5
2018-May-23 10:01N 59°20' E 018°05'2 3.8
2018-May-23 09:30N 59°19' E 018°09'1 2.9
2018-May-23 08:59N 59°21' E 018°08'2 3.7
2018-May-23 08:30N 59°19' E 018°07'2 2.9
2018-May-23 07:55N 59°20' E 018°05'2 4.2
2018-May-23 07:30N 59°19' E 018°07'2 3.6
2018-May-23 07:00N 59°21' E 018°08'2 3.5
2018-May-23 06:30N 59°19' E 018°10'3 5.3
2018-May-23 06:00N 59°20' E 018°05'2 4.7
2018-May-23 05:29N 59°19' E 018°09'1 3.1
2018-May-23 05:00N 59°21' E 018°09'2 3.2
2018-May-23 04:30N 59°19' E 018°08'2 3.5
2018-May-23 04:00N 59°20' E 018°05'0 0.0
2018-May-23 03:30N 59°20' E 018°05'0 0.0
2018-May-23 03:00N 59°20' E 018°05'0 0.0
2018-May-23 02:30N 59°20' E 018°05'0 0.0
2018-May-23 02:00N 59°20' E 018°05'0 0.0
2018-May-23 01:30N 59°20' E 018°05'0 0.0
2018-May-23 01:00N 59°20' E 018°05'0 0.0
2018-May-23 00:30N 59°20' E 018°05'0 0.0
2018-May-23 00:00N 59°20' E 018°05'0 0.0
2018-May-22 23:30N 59°20' E 018°05'0 0.0
2018-May-22 23:00N 59°20' E 018°05'0 0.0
2018-May-22 22:30N 59°20' E 018°05'0 0.0
2018-May-22 22:00N 59°20' E 018°05'0 0.0
2018-May-22 21:30N 59°20' E 018°05'0 0.0
2018-May-22 21:00N 59°20' E 018°05'0 0.0
2018-May-22 20:30N 59°20' E 018°05'0 0.0
2018-May-22 20:00N 59°20' E 018°05'0 0.0
2018-May-22 19:30N 59°20' E 018°05'2 3.2
2018-May-22 19:00N 59°19' E 018°07'0 0.9
2018-May-22 18:29N 59°19' E 018°07'1 1.5
2018-May-22 18:00N 59°19' E 018°06'2 3.6
2018-May-22 17:29N 59°19' E 018°09'2 4.1
2018-May-22 17:00N 59°20' E 018°05'1 2.1
2018-May-22 16:30N 59°19' E 018°07'2 3.4
2018-May-22 15:58N 59°21' E 018°09'2 3.2
2018-May-22 15:30N 59°19' E 018°10'2 4.2
2018-May-22 15:01N 59°19' E 018°06'1 1.6
2018-May-22 14:31N 59°19' E 018°07'2 4.0
2018-May-22 14:00N 59°21' E 018°09'1 2.9
2018-May-22 13:30N 59°19' E 018°09'2 4.5
2018-May-22 13:00N 59°20' E 018°05'0 0.3
2018-May-22 12:30N 59°20' E 018°05'0 0.0
2018-May-22 12:00N 59°20' E 018°05'0 0.0
2018-May-22 11:30N 59°20' E 018°05'2 3.1
2018-May-22 11:00N 59°19' E 018°07'0 0.4
2018-May-22 10:30N 59°19' E 018°07'1 1.7
2018-May-22 10:00N 59°19' E 018°06'2 3.6
2018-May-22 09:30N 59°19' E 018°09'1 2.6
2018-May-22 08:59N 59°21' E 018°09'2 3.8
2018-May-22 08:30N 59°19' E 018°07'2 3.5
2018-May-22 08:00N 59°20' E 018°05'2 3.7
2018-May-22 07:30N 59°19' E 018°08'2 3.3
2018-May-22 07:00N 59°21' E 018°08'2 3.6
2018-May-22 06:30N 59°19' E 018°10'3 5.3
2018-May-22 06:00N 59°20' E 018°05'2 4.5
2018-May-22 05:30N 59°19' E 018°09'1 3.0
2018-May-22 05:00N 59°21' E 018°09'2 3.5
2018-May-22 04:30N 59°19' E 018°07'2 3.0
2018-May-22 03:59N 59°20' E 018°05'0 0.0
2018-May-22 03:29N 59°20' E 018°05'0 0.0
2018-May-22 02:59N 59°20' E 018°05'0 0.0
2018-May-22 02:29N 59°20' E 018°05'0 0.0
2018-May-22 01:59N 59°20' E 018°05'0 0.0
2018-May-22 01:29N 59°20' E 018°05'0 0.0
2018-May-22 00:59N 59°20' E 018°05'0 0.0
2018-May-22 00:29N 59°20' E 018°05'0 0.0
2018-May-21 23:59N 59°20' E 018°05'0 0.0
2018-May-21 23:29N 59°20' E 018°05'0 0.0
2018-May-21 22:59N 59°20' E 018°05'0 0.0
2018-May-21 22:29N 59°20' E 018°05'0 0.0
2018-May-21 21:59N 59°20' E 018°05'0 0.0
2018-May-21 21:29N 59°20' E 018°05'0 0.0
2018-May-21 20:59N 59°20' E 018°05'0 0.0
2018-May-21 20:29N 59°20' E 018°05'0 0.0
2018-May-21 19:59N 59°20' E 018°05'0 0.0
2018-May-21 19:29N 59°20' E 018°05'1 2.9
2018-May-21 19:00N 59°19' E 018°07'0 0.6
2018-May-21 18:30N 59°19' E 018°07'1 1.4
2018-May-21 18:00N 59°19' E 018°06'2 3.4
2018-May-21 17:29N 59°19' E 018°09'2 4.0
2018-May-21 17:00N 59°20' E 018°05'1 1.9
2018-May-21 16:30N 59°19' E 018°07'2 3.9
2018-May-21 15:59N 59°21' E 018°09'2 3.0
2018-May-21 15:29N 59°19' E 018°10'2 4.6
2018-May-21 15:00N 59°20' E 018°05'1 1.9
2018-May-21 14:30N 59°19' E 018°07'2 3.8
2018-May-21 14:00N 59°20' E 018°09'1 2.5
2018-May-21 13:30N 59°19' E 018°10'2 4.6
2018-May-21 13:00N 59°20' E 018°05'0 0.4
2018-May-21 12:28N 59°20' E 018°05'0 0.0
2018-May-21 11:58N 59°20' E 018°05'0 0.0
2018-May-21 11:30N 59°20' E 018°05'2 3.1
2018-May-21 11:00N 59°19' E 018°07'0 0.3
2018-May-21 10:30N 59°19' E 018°07'1 1.8
2018-May-21 10:00N 59°19' E 018°06'2 3.7
2018-May-21 09:30N 59°19' E 018°09'1 2.8
2018-May-21 09:00N 59°21' E 018°09'2 3.5
2018-May-21 08:30N 59°19' E 018°07'2 3.2
2018-May-21 07:59N 59°20' E 018°05'2 3.6
2018-May-21 07:30N 59°19' E 018°07'2 3.5
2018-May-21 07:00N 59°21' E 018°08'2 3.3
2018-May-21 06:30N 59°19' E 018°10'3 5.0
2018-May-21 05:58N 59°20' E 018°05'2 4.6
2018-May-21 05:30N 59°19' E 018°08'2 3.1
2018-May-21 05:00N 59°21' E 018°09'2 3.2
2018-May-21 04:30N 59°19' E 018°08'2 3.4
2018-May-21 03:59N 59°20' E 018°05'0 0.0
2018-May-21 03:29N 59°20' E 018°05'0 0.0
2018-May-21 02:59N 59°20' E 018°05'0 0.0
2018-May-21 02:29N 59°20' E 018°05'0 0.0
2018-May-21 01:56N 59°20' E 018°05'0 0.0
2018-May-21 01:29N 59°20' E 018°05'0 0.0
2018-May-21 00:59N 59°20' E 018°05'0 0.0
2018-May-21 00:29N 59°20' E 018°05'0 0.0
2018-May-20 23:59N 59°20' E 018°05'0 0.0
2018-May-20 23:29N 59°20' E 018°05'0 0.0
2018-May-20 22:59N 59°20' E 018°05'0 0.0
2018-May-20 22:29N 59°20' E 018°05'0 0.0
2018-May-20 21:59N 59°20' E 018°05'0 0.0
2018-May-20 21:29N 59°20' E 018°05'0 0.0
2018-May-20 20:59N 59°20' E 018°05'0 0.0
2018-May-20 20:29N 59°20' E 018°05'0 0.0
2018-May-20 19:59N 59°20' E 018°05'0 0.0
2018-May-20 19:29N 59°20' E 018°05'0 0.0
2018-May-20 18:59N 59°20' E 018°05'0 0.0
2018-May-20 18:29N 59°20' E 018°05'0 0.0
2018-May-20 17:59N 59°20' E 018°05'0 0.0
2018-May-20 17:29N 59°20' E 018°05'0 0.0
2018-May-20 16:59N 59°20' E 018°05'0 0.2
2018-May-20 16:30N 59°20' E 018°05'2 3.1
2018-May-20 16:00N 59°19' E 018°07'2 3.6
2018-May-20 15:29N 59°21' E 018°09'2 3.2
2018-May-20 15:00N 59°19' E 018°08'2 4.0
2018-May-20 14:30N 59°20' E 018°05'2 3.9
2018-May-20 14:00N 59°19' E 018°08'2 4.1
2018-May-20 13:30N 59°20' E 018°05'2 3.9
2018-May-20 13:00N 59°19' E 018°08'2 3.1
2018-May-20 12:29N 59°21' E 018°09'2 3.5
2018-May-20 12:00N 59°19' E 018°08'2 3.4
2018-May-20 11:28N 59°20' E 018°05'0 0.0
2018-May-20 10:58N 59°20' E 018°05'2 3.6
2018-May-20 10:30N 59°19' E 018°07'1 2.2
2018-May-20 10:01N 59°19' E 018°06'1 1.5
2018-May-20 09:30N 59°19' E 018°07'2 3.6
2018-May-20 09:00N 59°21' E 018°09'2 3.0
2018-May-20 08:30N 59°19' E 018°08'2 3.5
2018-May-20 07:59N 59°20' E 018°05'0 0.1
2018-May-20 07:30N 59°20' E 018°05'0 0.0
2018-May-20 07:00N 59°20' E 018°05'0 0.0
2018-May-20 06:30N 59°20' E 018°05'0 0.0
2018-May-20 06:00N 59°20' E 018°05'0 0.0
2018-May-20 05:30N 59°20' E 018°05'0 0.0
2018-May-20 05:00N 59°20' E 018°05'0 0.0
2018-May-20 04:30N 59°20' E 018°05'0 0.0
2018-May-20 04:00N 59°20' E 018°05'0 0.0
2018-May-20 03:30N 59°20' E 018°05'0 0.0
2018-May-20 03:00N 59°20' E 018°05'0 0.0
2018-May-20 02:27N 59°20' E 018°05'0 0.0
2018-May-20 02:00N 59°20' E 018°05'0 0.0
2018-May-20 01:30N 59°20' E 018°05'0 0.0
2018-May-20 01:00N 59°20' E 018°05'0 0.0
2018-May-20 00:27N 59°20' E 018°05'0 0.0
2018-May-20 00:00N 59°20' E 018°05'0 0.0
2018-May-19 23:30N 59°20' E 018°05'0 0.0
2018-May-19 23:00N 59°20' E 018°05'0 0.0
2018-May-19 22:30N 59°20' E 018°05'0 0.0
2018-May-19 22:00N 59°20' E 018°05'0 0.0
2018-May-19 21:30N 59°20' E 018°05'0 0.0
2018-May-19 21:00N 59°20' E 018°05'0 0.0
2018-May-19 20:30N 59°20' E 018°05'0 0.0
2018-May-19 20:00N 59°20' E 018°05'0 0.0
2018-May-19 19:30N 59°20' E 018°05'0 0.0
2018-May-19 19:00N 59°20' E 018°05'0 0.0
2018-May-19 18:30N 59°20' E 018°05'0 0.0
2018-May-19 18:00N 59°20' E 018°05'0 0.0
2018-May-19 17:18N 59°20' E 018°05'0 0.0
2018-May-19 17:00N 59°20' E 018°05'0 0.0
2018-May-19 16:30N 59°20' E 018°05'2 3.1
2018-May-19 16:00N 59°19' E 018°07'2 3.5
2018-May-19 15:29N 59°21' E 018°09'2 3.3
2018-May-19 15:00N 59°19' E 018°08'2 4.1
2018-May-19 14:30N 59°20' E 018°05'2 4.1
2018-May-19 14:00N 59°19' E 018°08'2 4.0
2018-May-19 13:30N 59°20' E 018°05'2 3.9
2018-May-19 13:00N 59°19' E 018°08'2 3.2
2018-May-19 12:30N 59°21' E 018°09'2 3.4
2018-May-19 12:00N 59°19' E 018°08'2 3.2
2018-May-19 11:30N 59°20' E 018°05'0 0.2
2018-May-19 11:00N 59°20' E 018°05'2 3.3
2018-May-19 10:30N 59°19' E 018°08'1 2.6
2018-May-19 10:00N 59°20' E 018°05'1 1.9
2018-May-19 09:30N 59°19' E 018°07'2 3.5
2018-May-19 09:00N 59°21' E 018°09'2 3.1
2018-May-19 08:30N 59°19' E 018°08'2 3.7
2018-May-19 08:00N 59°20' E 018°05'0 0.0
2018-May-19 07:29N 59°20' E 018°05'0 0.0
2018-May-19 06:59N 59°20' E 018°05'0 0.0
2018-May-19 06:29N 59°20' E 018°05'0 0.0
2018-May-19 05:59N 59°20' E 018°05'0 0.0
2018-May-19 05:29N 59°20' E 018°05'0 0.0
2018-May-19 04:59N 59°20' E 018°05'0 0.0
2018-May-19 04:29N 59°20' E 018°05'0 0.0
2018-May-19 03:59N 59°20' E 018°05'0 0.0
2018-May-19 03:29N 59°20' E 018°05'0 0.0
2018-May-19 02:59N 59°20' E 018°05'0 0.0
2018-May-19 02:29N 59°20' E 018°05'0 0.0
2018-May-19 02:00N 59°20' E 018°05'0 0.0
2018-May-19 01:29N 59°20' E 018°05'0 0.0
2018-May-19 00:59N 59°20' E 018°05'0 0.0
2018-May-19 00:29N 59°20' E 018°05'0 0.0
2018-May-18 23:59N 59°20' E 018°05'0 0.0
2018-May-18 23:29N 59°20' E 018°05'0 0.0
2018-May-18 22:56N 59°20' E 018°05'0 0.0
2018-May-18 22:23N 59°20' E 018°05'0 0.0
2018-May-18 21:59N 59°20' E 018°05'0 0.0
2018-May-18 21:29N 59°20' E 018°05'0 0.0
2018-May-18 20:59N 59°20' E 018°05'0 0.0
2018-May-18 20:29N 59°20' E 018°05'0 0.0
2018-May-18 19:59N 59°20' E 018°05'0 0.0
2018-May-18 19:29N 59°20' E 018°05'2 3.2
2018-May-18 19:01N 59°19' E 018°07'0 0.9
2018-May-18 18:31N 59°19' E 018°07'1 1.7
2018-May-18 18:01N 59°20' E 018°05'2 4.2
2018-May-18 17:30N 59°19' E 018°10'2 4.2
2018-May-18 17:00N 59°20' E 018°05'1 1.8
2018-May-18 16:30N 59°19' E 018°07'2 3.8
2018-May-18 15:59N 59°21' E 018°09'1 3.1
2018-May-18 15:30N 59°19' E 018°10'2 4.3
2018-May-18 15:00N 59°20' E 018°05'1 1.7
2018-May-18 14:30N 59°19' E 018°07'2 3.8
2018-May-18 14:00N 59°20' E 018°09'1 2.2
2018-May-18 13:30N 59°19' E 018°10'2 4.2
2018-May-18 13:00N 59°19' E 018°06'0 0.9
2018-May-18 12:30N 59°20' E 018°05'0 0.0
2018-May-18 12:00N 59°20' E 018°05'0 0.0
2018-May-18 11:30N 59°20' E 018°05'1 2.9
2018-May-18 11:00N 59°19' E 018°07'0 0.2
2018-May-18 10:30N 59°19' E 018°07'1 2.6
2018-May-18 10:00N 59°20' E 018°05'2 4.1
2018-May-18 09:29N 59°19' E 018°09'1 3.1
2018-May-18 09:00N 59°21' E 018°09'2 3.5
2018-May-18 08:30N 59°19' E 018°07'2 3.4
2018-May-18 07:59N 59°20' E 018°05'2 3.6
2018-May-18 07:30N 59°19' E 018°07'2 3.4
2018-May-18 07:00N 59°21' E 018°08'2 3.4
2018-May-18 06:30N 59°19' E 018°10'3 5.3
2018-May-18 06:00N 59°20' E 018°05'2 4.2
2018-May-18 05:30N 59°19' E 018°08'2 3.2
2018-May-18 05:00N 59°21' E 018°08'2 3.2
2018-May-18 04:30N 59°19' E 018°08'2 3.7
2018-May-18 04:00N 59°20' E 018°05'0 0.0
2018-May-18 03:30N 59°20' E 018°05'0 0.0
2018-May-18 03:00N 59°20' E 018°05'0 0.0
2018-May-18 02:30N 59°20' E 018°05'0 0.0
2018-May-18 02:00N 59°20' E 018°05'0 0.0
2018-May-18 01:30N 59°20' E 018°05'0 0.0
2018-May-18 01:00N 59°20' E 018°05'0 0.0
2018-May-18 00:30N 59°20' E 018°05'0 0.0
2018-May-18 00:00N 59°20' E 018°05'0 0.0
2018-May-17 23:30N 59°20' E 018°05'0 0.0
2018-May-17 23:00N 59°20' E 018°05'0 0.0
2018-May-17 22:27N 59°20' E 018°05'0 0.0
2018-May-17 22:00N 59°20' E 018°05'0 0.0
2018-May-17 21:30N 59°20' E 018°05'0 0.0
2018-May-17 21:00N 59°20' E 018°05'0 0.0
2018-May-17 20:30N 59°20' E 018°05'0 0.0
2018-May-17 19:57N 59°20' E 018°05'0 0.0
2018-May-17 19:30N 59°20' E 018°05'1 2.5
2018-May-17 19:00N 59°19' E 018°07'0 0.0
2018-May-17 18:30N 59°19' E 018°07'1 1.8
2018-May-17 18:00N 59°20' E 018°05'2 4.4
2018-May-17 17:30N 59°19' E 018°10'2 4.3
2018-May-17 16:59N 59°20' E 018°05'1 2.1
2018-May-17 16:30N 59°19' E 018°07'2 3.7
2018-May-17 16:00N 59°21' E 018°09'1 2.8
2018-May-17 15:29N 59°19' E 018°10'2 4.7
2018-May-17 14:57N 59°20' E 018°05'1 2.7
2018-May-17 14:30N 59°19' E 018°07'2 3.7
2018-May-17 13:58N 59°20' E 018°09'1 2.4
2018-May-17 13:30N 59°19' E 018°10'2 4.3
2018-May-17 13:01N 59°20' E 018°05'0 0.5
2018-May-17 12:19N 59°20' E 018°05'0 0.0
2018-May-17 11:43N 59°20' E 018°05'0 0.0
2018-May-17 11:25N 59°20' E 018°05'1 3.1
2018-May-17 10:58N 59°19' E 018°07'0 0.2
2018-May-17 10:29N 59°19' E 018°07'1 2.6
2018-May-17 09:59N 59°20' E 018°05'2 4.4
2018-May-17 09:29N 59°19' E 018°09'1 3.0
2018-May-17 09:00N 59°21' E 018°09'2 3.3
2018-May-17 08:29N 59°19' E 018°07'2 3.4
2018-May-17 07:59N 59°20' E 018°05'2 3.4
2018-May-17 07:29N 59°19' E 018°07'2 3.5
2018-May-17 07:00N 59°21' E 018°08'2 3.2
2018-May-17 06:29N 59°19' E 018°10'3 5.5
2018-May-17 06:00N 59°20' E 018°05'2 4.2
2018-May-17 05:30N 59°19' E 018°08'2 3.1
2018-May-17 05:00N 59°21' E 018°09'2 3.1
2018-May-17 04:30N 59°19' E 018°08'2 3.7
2018-May-17 04:00N 59°20' E 018°05'0 0.0
2018-May-17 03:30N 59°20' E 018°05'0 0.0
2018-May-17 03:00N 59°20' E 018°05'0 0.0
2018-May-17 02:30N 59°20' E 018°05'0 0.0
2018-May-17 02:00N 59°20' E 018°05'0 0.0
2018-May-17 01:30N 59°20' E 018°05'0 0.0
2018-May-17 01:00N 59°20' E 018°05'0 0.0
2018-May-17 00:30N 59°20' E 018°05'0 0.0
2018-May-17 00:00N 59°20' E 018°05'0 0.0
2018-May-16 23:30N 59°20' E 018°05'0 0.0
2018-May-16 23:00N 59°20' E 018°05'0 0.0
2018-May-16 22:30N 59°20' E 018°05'0 0.0
2018-May-16 22:00N 59°20' E 018°05'0 0.0
2018-May-16 21:30N 59°20' E 018°05'0 0.0
2018-May-16 21:00N 59°20' E 018°05'0 0.0
2018-May-16 20:30N 59°20' E 018°05'0 0.0
2018-May-16 20:00N 59°20' E 018°05'0 0.0
2018-May-16 19:30N 59°20' E 018°05'1 2.5
2018-May-16 19:00N 59°19' E 018°07'0 0.2
2018-May-16 18:30N 59°19' E 018°07'1 2.1
2018-May-16 18:00N 59°20' E 018°05'2 4.3
2018-May-16 17:29N 59°19' E 018°09'2 4.2
2018-May-16 17:00N 59°20' E 018°06'1 1.7
2018-May-16 16:30N 59°19' E 018°07'2 3.7
2018-May-16 16:00N 59°20' E 018°09'1 2.7
2018-May-16 15:31N 59°19' E 018°10'2 4.4
2018-May-16 15:00N 59°20' E 018°05'1 2.0
2018-May-16 14:30N 59°19' E 018°07'2 3.9
2018-May-16 14:00N 59°20' E 018°09'1 2.5
2018-May-16 13:30N 59°19' E 018°10'2 4.3
2018-May-16 13:00N 59°20' E 018°05'0 0.7
2018-May-16 12:28N 59°20' E 018°05'0 0.0
2018-May-16 11:55N 59°20' E 018°05'0 0.0
2018-May-16 11:30N 59°20' E 018°05'1 2.8
2018-May-16 11:00N 59°19' E 018°07'0 0.3
2018-May-16 10:30N 59°19' E 018°07'1 2.7
2018-May-16 10:00N 59°20' E 018°05'2 4.4
2018-May-16 09:30N 59°19' E 018°09'2 3.1
2018-May-16 09:00N 59°21' E 018°09'2 3.5
2018-May-16 08:30N 59°19' E 018°07'2 3.2
2018-May-16 07:58N 59°20' E 018°05'2 3.8
2018-May-16 07:30N 59°19' E 018°07'2 3.4
2018-May-16 07:00N 59°21' E 018°08'2 3.4
2018-May-16 06:30N 59°19' E 018°10'3 5.4
2018-May-16 06:00N 59°20' E 018°05'2 4.1
2018-May-16 05:30N 59°19' E 018°08'2 3.2
2018-May-16 05:00N 59°21' E 018°08'2 3.3
2018-May-16 04:31N 59°19' E 018°08'2 3.5
2018-May-16 03:59N 59°20' E 018°05'0 0.0
2018-May-16 03:23N 59°20' E 018°05'0 0.0
2018-May-16 02:59N 59°20' E 018°05'0 0.0
2018-May-16 02:29N 59°20' E 018°05'  
Track history (hours):
 
Tides and Currents Weather Stations Pressure Air Temp Water Temp Dewpoint Dewpoint Depression Visibility Wind Speed Wind Dir Waves Ship Positions

Gurli

Last reported at 2018-May-26 02:28 UTC. Time now 2018-May-26 02:28 UTC.
Position N 59°20' E 018°05'.

Length 21 m.

Type: Passenger vessel. MMSI: 265687640.

Date/timePositionNaut miles runAvg speedWind from/ knotsBaromVisibWave heightAir tempDewpointWater temp
2018-May-26 02:28N 59°20' E 018°05'0 0.0
2018-May-26 01:58N 59°20' E 018°05'0 0.0
2018-May-26 01:28N 59°20' E 018°05'0 0.0
2018-May-26 00:58N 59°20' E 018°05'0 0.0
2018-May-26 00:28N 59°20' E 018°05'0 0.0
2018-May-25 23:58N 59°20' E 018°05'0 0.0
2018-May-25 23:28N 59°20' E 018°05'0 0.0
2018-May-25 22:58N 59°20' E 018°05'0 0.0
2018-May-25 22:28N 59°20' E 018°05'0 0.0
2018-May-25 21:58N 59°20' E 018°05'0 0.0
2018-May-25 21:28N 59°20' E 018°05'0 0.0
2018-May-25 20:58N 59°20' E 018°05'0 0.0
2018-May-25 20:28N 59°20' E 018°05'0 0.0
2018-May-25 19:58N 59°20' E 018°05'0 0.0
2018-May-25 19:28N 59°20' E 018°05'1 2.7
2018-May-25 19:00N 59°19' E 018°07'0 0.0
2018-May-25 18:30N 59°19' E 018°07'1 1.4
2018-May-25 18:00N 59°19' E 018°06'2 3.5
2018-May-25 17:29N 59°19' E 018°09'2 4.5
2018-May-25 17:00N 59°20' E 018°05'1 3.0
2018-May-25 16:30N 59°19' E 018°07'2 3.6
2018-May-25 16:00N 59°21' E 018°09'1 2.8
2018-May-25 15:28N 59°19' E 018°09'2 4.9
2018-May-25 14:58N 59°20' E 018°05'2 3.3
2018-May-25 14:30N 59°19' E 018°07'2 3.4
2018-May-25 14:00N 59°21' E 018°09'1 3.0
2018-May-25 13:30N 59°19' E 018°09'2 3.8
2018-May-25 13:00N 59°20' E 018°05'0 0.3
2018-May-25 12:30N 59°20' E 018°05'0 0.0
2018-May-25 12:00N 59°20' E 018°05'0 0.3
2018-May-25 11:30N 59°20' E 018°05'2 3.7
2018-May-25 11:00N 59°19' E 018°08'1 1.6
2018-May-25 10:30N 59°19' E 018°07'1 1.4
2018-May-25 10:00N 59°19' E 018°06'2 4.0
2018-May-25 09:29N 59°19' E 018°10'1 3.1
2018-May-25 09:00N 59°21' E 018°09'2 3.6
2018-May-25 08:30N 59°19' E 018°07'2 3.0
2018-May-25 07:58N 59°20' E 018°05'2 3.7
2018-May-25 07:30N 59°19' E 018°07'2 3.6
2018-May-25 07:00N 59°21' E 018°08'2 3.7
2018-May-25 06:30N 59°19' E 018°10'3 5.1
2018-May-25 05:59N 59°20' E 018°05'2 4.6
2018-May-25 05:30N 59°19' E 018°09'1 2.9
2018-May-25 05:00N 59°21' E 018°09'2 3.4
2018-May-25 04:29N 59°19' E 018°07'2 3.1
2018-May-25 03:59N 59°20' E 018°05'0 0.0
2018-May-25 03:29N 59°20' E 018°05'0 0.0
2018-May-25 02:59N 59°20' E 018°05'0 0.0
2018-May-25 02:29N 59°20' E 018°05'0 0.0
2018-May-25 01:59N 59°20' E 018°05'0 0.0
2018-May-25 01:29N 59°20' E 018°05'0 0.0
2018-May-25 00:59N 59°20' E 018°05'0 0.0
2018-May-25 00:29N 59°20' E 018°05'0 0.0
2018-May-24 23:59N 59°20' E 018°05'0 0.0
2018-May-24 23:29N 59°20' E 018°05'0 0.0
2018-May-24 22:59N 59°20' E 018°05'0 0.0
2018-May-24 22:29N 59°20' E 018°05'0 0.0
2018-May-24 21:59N 59°20' E 018°05'0 0.0
2018-May-24 21:29N 59°20' E 018°05'0 0.0
2018-May-24 20:59N 59°20' E 018°05'0 0.0
2018-May-24 20:29N 59°20' E 018°05'0 0.0
2018-May-24 19:59N 59°20' E 018°05'0 0.0
2018-May-24 19:29N 59°20' E 018°05'1 3.1
2018-May-24 19:00N 59°19' E 018°07'0 0.8
2018-May-24 18:29N 59°19' E 018°07'0 0.7
2018-May-24 18:00N 59°19' E 018°06'2 3.2
2018-May-24 17:30N 59°19' E 018°09'2 4.0
2018-May-24 16:59N 59°20' E 018°05'1 2.6
2018-May-24 16:30N 59°19' E 018°07'2 3.6
2018-May-24 16:00N 59°21' E 018°09'2 3.0
2018-May-24 15:30N 59°19' E 018°10'2 4.3
2018-May-24 15:00N 59°20' E 018°05'1 1.7
2018-May-24 14:30N 59°19' E 018°07'2 3.9
2018-May-24 13:59N 59°20' E 018°09'1 2.7
2018-May-24 13:29N 59°19' E 018°10'2 0.3
2018-May-24 08:59N 59°21' E 018°09'2 3.6
2018-May-24 08:30N 59°19' E 018°07'2 3.1
2018-May-24 07:58N 59°20' E 018°05'2 3.8
2018-May-24 07:30N 59°19' E 018°07'2 3.5
2018-May-24 07:00N 59°21' E 018°08'2 3.1
2018-May-24 06:29N 59°19' E 018°09'2 4.7
2018-May-24 05:59N 59°20' E 018°05'3 5.5
2018-May-24 05:30N 59°19' E 018°10'1 3.0
2018-May-24 05:00N 59°21' E 018°09'2 3.6
2018-May-24 04:30N 59°19' E 018°07'2 3.1
2018-May-24 04:00N 59°20' E 018°05'0 0.0
2018-May-24 03:30N 59°20' E 018°05'0 0.0
2018-May-24 03:00N 59°20' E 018°05'0 0.0
2018-May-24 02:30N 59°20' E 018°05'0 0.0
2018-May-24 01:57N 59°20' E 018°05'0 0.0
2018-May-24 01:30N 59°20' E 018°05'0 0.0
2018-May-24 01:00N 59°20' E 018°05'0 0.0
2018-May-24 00:30N 59°20' E 018°05'0 0.0
2018-May-24 00:00N 59°20' E 018°05'0 0.0
2018-May-23 23:30N 59°20' E 018°05'0 0.0
2018-May-23 23:00N 59°20' E 018°05'0 0.0
2018-May-23 22:30N 59°20' E 018°05'0 0.0
2018-May-23 22:00N 59°20' E 018°05'0 0.0
2018-May-23 21:30N 59°20' E 018°05'0 0.0
2018-May-23 21:00N 59°20' E 018°05'0 0.0
2018-May-23 20:30N 59°20' E 018°05'0 0.0
2018-May-23 20:00N 59°20' E 018°05'0 0.0
2018-May-23 19:30N 59°20' E 018°05'2 3.1
2018-May-23 19:00N 59°19' E 018°07'0 0.9
2018-May-23 18:30N 59°19' E 018°07'1 1.4
2018-May-23 18:00N 59°19' E 018°06'2 4.1
2018-May-23 17:30N 59°19' E 018°10'2 4.3
2018-May-23 17:00N 59°20' E 018°05'1 1.8
2018-May-23 16:30N 59°19' E 018°07'2 4.0
2018-May-23 16:00N 59°21' E 018°09'1 2.9
2018-May-23 15:29N 59°19' E 018°10'2 4.4
2018-May-23 15:00N 59°20' E 018°05'1 1.5
2018-May-23 14:30N 59°19' E 018°07'2 3.6
2018-May-23 14:00N 59°20' E 018°09'1 1.7
2018-May-23 13:30N 59°19' E 018°10'2 4.2
2018-May-23 13:00N 59°20' E 018°05'0 0.7
2018-May-23 12:28N 59°20' E 018°05'0 0.0
2018-May-23 11:58N 59°20' E 018°05'0 0.0
2018-May-23 11:30N 59°20' E 018°05'2 3.0
2018-May-23 11:00N 59°19' E 018°07'0 0.1
2018-May-23 10:30N 59°19' E 018°07'1 2.5
2018-May-23 10:01N 59°20' E 018°05'2 3.8
2018-May-23 09:30N 59°19' E 018°09'1 2.9
2018-May-23 08:59N 59°21' E 018°08'2 3.7
2018-May-23 08:30N 59°19' E 018°07'2 2.9
2018-May-23 07:55N 59°20' E 018°05'2 4.2
2018-May-23 07:30N 59°19' E 018°07'2 3.6
2018-May-23 07:00N 59°21' E 018°08'2 3.5
2018-May-23 06:30N 59°19' E 018°10'3 5.3
2018-May-23 06:00N 59°20' E 018°05'2 4.7
2018-May-23 05:29N 59°19' E 018°09'1 3.1
2018-May-23 05:00N 59°21' E 018°09'2 3.2
2018-May-23 04:30N 59°19' E 018°08'2 3.5
2018-May-23 04:00N 59°20' E 018°05'0 0.0
2018-May-23 03:30N 59°20' E 018°05'0 0.0
2018-May-23 03:00N 59°20' E 018°05'0 0.0
2018-May-23 02:30N 59°20' E 018°05'0 0.0
2018-May-23 02:00N 59°20' E 018°05'0 0.0
2018-May-23 01:30N 59°20' E 018°05'0 0.0
2018-May-23 01:00N 59°20' E 018°05'0 0.0
2018-May-23 00:30N 59°20' E 018°05'0 0.0
2018-May-23 00:00N 59°20' E 018°05'0 0.0
2018-May-22 23:30N 59°20' E 018°05'0 0.0
2018-May-22 23:00N 59°20' E 018°05'0 0.0
2018-May-22 22:30N 59°20' E 018°05'0 0.0
2018-May-22 22:00N 59°20' E 018°05'0 0.0
2018-May-22 21:30N 59°20' E 018°05'0 0.0
2018-May-22 21:00N 59°20' E 018°05'0 0.0
2018-May-22 20:30N 59°20' E 018°05'0 0.0
2018-May-22 20:00N 59°20' E 018°05'0 0.0
2018-May-22 19:30N 59°20' E 018°05'2 3.2
2018-May-22 19:00N 59°19' E 018°07'0 0.9
2018-May-22 18:29N 59°19' E 018°07'1 1.5
2018-May-22 18:00N 59°19' E 018°06'2 3.6
2018-May-22 17:29N 59°19' E 018°09'2 4.1
2018-May-22 17:00N 59°20' E 018°05'1 2.1
2018-May-22 16:30N 59°19' E 018°07'2 3.4
2018-May-22 15:58N 59°21' E 018°09'2 3.2
2018-May-22 15:30N 59°19' E 018°10'2 4.2
2018-May-22 15:01N 59°19' E 018°06'1 1.6
2018-May-22 14:31N 59°19' E 018°07'2 4.0
2018-May-22 14:00N 59°21' E 018°09'1 2.9
2018-May-22 13:30N 59°19' E 018°09'2 4.5
2018-May-22 13:00N 59°20' E 018°05'0 0.3
2018-May-22 12:30N 59°20' E 018°05'0 0.0
2018-May-22 12:00N 59°20' E 018°05'0 0.0
2018-May-22 11:30N 59°20' E 018°05'2 3.1
2018-May-22 11:00N 59°19' E 018°07'0 0.4
2018-May-22 10:30N 59°19' E 018°07'1 1.7
2018-May-22 10:00N 59°19' E 018°06'2 3.6
2018-May-22 09:30N 59°19' E 018°09'1 2.6
2018-May-22 08:59N 59°21' E 018°09'2 3.8
2018-May-22 08:30N 59°19' E 018°07'2 3.5
2018-May-22 08:00N 59°20' E 018°05'2 3.7
2018-May-22 07:30N 59°19' E 018°08'2 3.3
2018-May-22 07:00N 59°21' E 018°08'2 3.6
2018-May-22 06:30N 59°19' E 018°10'3 5.3
2018-May-22 06:00N 59°20' E 018°05'2 4.5
2018-May-22 05:30N 59°19' E 018°09'1 3.0
2018-May-22 05:00N 59°21' E 018°09'2 3.5
2018-May-22 04:30N 59°19' E 018°07'2 3.0
2018-May-22 03:59N 59°20' E 018°05'0 0.0
2018-May-22 03:29N 59°20' E 018°05'0 0.0
2018-May-22 02:59N 59°20' E 018°05'0 0.0
2018-May-22 02:29N 59°20' E 018°05'0 0.0
2018-May-22 01:59N 59°20' E 018°05'0 0.0
2018-May-22 01:29N 59°20' E 018°05'0 0.0
2018-May-22 00:59N 59°20' E 018°05'0 0.0
2018-May-22 00:29N 59°20' E 018°05'0 0.0
2018-May-21 23:59N 59°20' E 018°05'0 0.0
2018-May-21 23:29N 59°20' E 018°05'0 0.0
2018-May-21 22:59N 59°20' E 018°05'0 0.0
2018-May-21 22:29N 59°20' E 018°05'0 0.0
2018-May-21 21:59N 59°20' E 018°05'0 0.0
2018-May-21 21:29N 59°20' E 018°05'0 0.0
2018-May-21 20:59N 59°20' E 018°05'0 0.0
2018-May-21 20:29N 59°20' E 018°05'0 0.0
2018-May-21 19:59N 59°20' E 018°05'0 0.0
2018-May-21 19:29N 59°20' E 018°05'1 2.9
2018-May-21 19:00N 59°19' E 018°07'0 0.6
2018-May-21 18:30N 59°19' E 018°07'1 1.4
2018-May-21 18:00N 59°19' E 018°06'2 3.4
2018-May-21 17:29N 59°19' E 018°09'2 4.0
2018-May-21 17:00N 59°20' E 018°05'1 1.9
2018-May-21 16:30N 59°19' E 018°07'2 3.9
2018-May-21 15:59N 59°21' E 018°09'2 3.0
2018-May-21 15:29N 59°19' E 018°10'2 4.6
2018-May-21 15:00N 59°20' E 018°05'1 1.9
2018-May-21 14:30N 59°19' E 018°07'2 3.8
2018-May-21 14:00N 59°20' E 018°09'1 2.5
2018-May-21 13:30N 59°19' E 018°10'2 4.6
2018-May-21 13:00N 59°20' E 018°05'0 0.4
2018-May-21 12:28N 59°20' E 018°05'0 0.0
2018-May-21 11:58N 59°20' E 018°05'0 0.0
2018-May-21 11:30N 59°20' E 018°05'2 3.1
2018-May-21 11:00N 59°19' E 018°07'0 0.3
2018-May-21 10:30N 59°19' E 018°07'1 1.8
2018-May-21 10:00N 59°19' E 018°06'2 3.7
2018-May-21 09:30N 59°19' E 018°09'1 2.8
2018-May-21 09:00N 59°21' E 018°09'2 3.5
2018-May-21 08:30N 59°19' E 018°07'2 3.2
2018-May-21 07:59N 59°20' E 018°05'2 3.6
2018-May-21 07:30N 59°19' E 018°07'2 3.5
2018-May-21 07:00N 59°21' E 018°08'2 3.3
2018-May-21 06:30N 59°19' E 018°10'3 5.0
2018-May-21 05:58N 59°20' E 018°05'2 4.6
2018-May-21 05:30N 59°19' E 018°08'2 3.1
2018-May-21 05:00N 59°21' E 018°09'2 3.2
2018-May-21 04:30N 59°19' E 018°08'2 3.4
2018-May-21 03:59N 59°20' E 018°05'0 0.0
2018-May-21 03:29N 59°20' E 018°05'0 0.0
2018-May-21 02:59N 59°20' E 018°05'0 0.0
2018-May-21 02:29N 59°20' E 018°05'0 0.0
2018-May-21 01:56N 59°20' E 018°05'0 0.0
2018-May-21 01:29N 59°20' E 018°05'0 0.0
2018-May-21 00:59N 59°20' E 018°05'0 0.0
2018-May-21 00:29N 59°20' E 018°05'0 0.0
2018-May-20 23:59N 59°20' E 018°05'0 0.0
2018-May-20 23:29N 59°20' E 018°05'0 0.0
2018-May-20 22:59N 59°20' E 018°05'0 0.0
2018-May-20 22:29N 59°20' E 018°05'0 0.0
2018-May-20 21:59N 59°20' E 018°05'0 0.0
2018-May-20 21:29N 59°20' E 018°05'0 0.0
2018-May-20 20:59N 59°20' E 018°05'0 0.0
2018-May-20 20:29N 59°20' E 018°05'0 0.0
2018-May-20 19:59N 59°20' E 018°05'0 0.0
2018-May-20 19:29N 59°20' E 018°05'0 0.0
2018-May-20 18:59N 59°20' E 018°05'0 0.0
2018-May-20 18:29N 59°20' E 018°05'0 0.0
2018-May-20 17:59N 59°20' E 018°05'0 0.0
2018-May-20 17:29N 59°20' E 018°05'0 0.0
2018-May-20 16:59N 59°20' E 018°05'0 0.2
2018-May-20 16:30N 59°20' E 018°05'2 3.1
2018-May-20 16:00N 59°19' E 018°07'2 3.6
2018-May-20 15:29N 59°21' E 018°09'2 3.2
2018-May-20 15:00N 59°19' E 018°08'2 4.0
2018-May-20 14:30N 59°20' E 018°05'2 3.9
2018-May-20 14:00N 59°19' E 018°08'2 4.1
2018-May-20 13:30N 59°20' E 018°05'2 3.9
2018-May-20 13:00N 59°19' E 018°08'2 3.1
2018-May-20 12:29N 59°21' E 018°09'2 3.5
2018-May-20 12:00N 59°19' E 018°08'2 3.4
2018-May-20 11:28N 59°20' E 018°05'0 0.0
2018-May-20 10:58N 59°20' E 018°05'2 3.6
2018-May-20 10:30N 59°19' E 018°07'1 2.2
2018-May-20 10:01N 59°19' E 018°06'1 1.5
2018-May-20 09:30N 59°19' E 018°07'2 3.6
2018-May-20 09:00N 59°21' E 018°09'2 3.0
2018-May-20 08:30N 59°19' E 018°08'2 3.5
2018-May-20 07:59N 59°20' E 018°05'0 0.1
2018-May-20 07:30N 59°20' E 018°05'0 0.0
2018-May-20 07:00N 59°20' E 018°05'0 0.0
2018-May-20 06:30N 59°20' E 018°05'0 0.0
2018-May-20 06:00N 59°20' E 018°05'0 0.0
2018-May-20 05:30N 59°20' E 018°05'0 0.0
2018-May-20 05:00N 59°20' E 018°05'0 0.0
2018-May-20 04:30N 59°20' E 018°05'0 0.0
2018-May-20 04:00N 59°20' E 018°05'0 0.0
2018-May-20 03:30N 59°20' E 018°05'0 0.0
2018-May-20 03:00N 59°20' E 018°05'0 0.0
2018-May-20 02:27N 59°20' E 018°05'0 0.0
2018-May-20 02:00N 59°20' E 018°05'0 0.0
2018-May-20 01:30N 59°20' E 018°05'0 0.0
2018-May-20 01:00N 59°20' E 018°05'0 0.0
2018-May-20 00:27N 59°20' E 018°05'0 0.0
2018-May-20 00:00N 59°20' E 018°05'0 0.0
2018-May-19 23:30N 59°20' E 018°05'0 0.0
2018-May-19 23:00N 59°20' E 018°05'0 0.0
2018-May-19 22:30N 59°20' E 018°05'0 0.0
2018-May-19 22:00N 59°20' E 018°05'0 0.0
2018-May-19 21:30N 59°20' E 018°05'0 0.0
2018-May-19 21:00N 59°20' E 018°05'0 0.0
2018-May-19 20:30N 59°20' E 018°05'0 0.0
2018-May-19 20:00N 59°20' E 018°05'0 0.0
2018-May-19 19:30N 59°20' E 018°05'0 0.0
2018-May-19 19:00N 59°20' E 018°05'0 0.0
2018-May-19 18:30N 59°20' E 018°05'0 0.0
2018-May-19 18:00N 59°20' E 018°05'0 0.0
2018-May-19 17:18N 59°20' E 018°05'0 0.0
2018-May-19 17:00N 59°20' E 018°05'0 0.0
2018-May-19 16:30N 59°20' E 018°05'2 3.1
2018-May-19 16:00N 59°19' E 018°07'2 3.5
2018-May-19 15:29N 59°21' E 018°09'2 3.3
2018-May-19 15:00N 59°19' E 018°08'2 4.1
2018-May-19 14:30N 59°20' E 018°05'2 4.1
2018-May-19 14:00N 59°19' E 018°08'2 4.0
2018-May-19 13:30N 59°20' E 018°05'2 3.9
2018-May-19 13:00N 59°19' E 018°08'2 3.2
2018-May-19 12:30N 59°21' E 018°09'2 3.4
2018-May-19 12:00N 59°19' E 018°08'2 3.2
2018-May-19 11:30N 59°20' E 018°05'0 0.2
2018-May-19 11:00N 59°20' E 018°05'2 3.3
2018-May-19 10:30N 59°19' E 018°08'1 2.6
2018-May-19 10:00N 59°20' E 018°05'1 1.9
2018-May-19 09:30N 59°19' E 018°07'2 3.5
2018-May-19 09:00N 59°21' E 018°09'2 3.1
2018-May-19 08:30N 59°19' E 018°08'2 3.7
2018-May-19 08:00N 59°20' E 018°05'0 0.0
2018-May-19 07:29N 59°20' E 018°05'0 0.0
2018-May-19 06:59N 59°20' E 018°05'0 0.0
2018-May-19 06:29N 59°20' E 018°05'0 0.0
2018-May-19 05:59N 59°20' E 018°05'0 0.0
2018-May-19 05:29N 59°20' E 018°05'0 0.0
2018-May-19 04:59N 59°20' E 018°05'0 0.0
2018-May-19 04:29N 59°20' E 018°05'0 0.0
2018-May-19 03:59N 59°20' E 018°05'0 0.0
2018-May-19 03:29N 59°20' E 018°05'0 0.0
2018-May-19 02:59N 59°20' E 018°05'0 0.0
2018-May-19 02:29N 59°20' E 018°05'0 0.0
2018-May-19 02:00N 59°20' E 018°05'0 0.0
2018-May-19 01:29N 59°20' E 018°05'0 0.0
2018-May-19 00:59N 59°20' E 018°05'0 0.0
2018-May-19 00:29N 59°20' E 018°05'0 0.0
2018-May-18 23:59N 59°20' E 018°05'0 0.0
2018-May-18 23:29N 59°20' E 018°05'0 0.0
2018-May-18 22:56N 59°20' E 018°05'0 0.0
2018-May-18 22:23N 59°20' E 018°05'0 0.0
2018-May-18 21:59N 59°20' E 018°05'0 0.0
2018-May-18 21:29N 59°20' E 018°05'0 0.0
2018-May-18 20:59N 59°20' E 018°05'0 0.0
2018-May-18 20:29N 59°20' E 018°05'0 0.0
2018-May-18 19:59N 59°20' E 018°05'0 0.0
2018-May-18 19:29N 59°20' E 018°05'2 3.2
2018-May-18 19:01N 59°19' E 018°07'0 0.9
2018-May-18 18:31N 59°19' E 018°07'1 1.7
2018-May-18 18:01N 59°20' E 018°05'2 4.2
2018-May-18 17:30N 59°19' E 018°10'2 4.2
2018-May-18 17:00N 59°20' E 018°05'1 1.8
2018-May-18 16:30N 59°19' E 018°07'2 3.8
2018-May-18 15:59N 59°21' E 018°09'1 3.1
2018-May-18 15:30N 59°19' E 018°10'2 4.3
2018-May-18 15:00N 59°20' E 018°05'1 1.7
2018-May-18 14:30N 59°19' E 018°07'2 3.8
2018-May-18 14:00N 59°20' E 018°09'1 2.2
2018-May-18 13:30N 59°19' E 018°10'2 4.2
2018-May-18 13:00N 59°19' E 018°06'0 0.9
2018-May-18 12:30N 59°20' E 018°05'0 0.0
2018-May-18 12:00N 59°20' E 018°05'0 0.0
2018-May-18 11:30N 59°20' E 018°05'1 2.9
2018-May-18 11:00N 59°19' E 018°07'0 0.2
2018-May-18 10:30N 59°19' E 018°07'1 2.6
2018-May-18 10:00N 59°20' E 018°05'2 4.1
2018-May-18 09:29N 59°19' E 018°09'1 3.1
2018-May-18 09:00N 59°21' E 018°09'2 3.5
2018-May-18 08:30N 59°19' E 018°07'2 3.4
2018-May-18 07:59N 59°20' E 018°05'2 3.6
2018-May-18 07:30N 59°19' E 018°07'2 3.4
2018-May-18 07:00N 59°21' E 018°08'2 3.4
2018-May-18 06:30N 59°19' E 018°10'3 5.3
2018-May-18 06:00N 59°20' E 018°05'2 4.2
2018-May-18 05:30N 59°19' E 018°08'2 3.2
2018-May-18 05:00N 59°21' E 018°08'2 3.2
2018-May-18 04:30N 59°19' E 018°08'2 3.7
2018-May-18 04:00N 59°20' E 018°05'0 0.0
2018-May-18 03:30N 59°20' E 018°05'0 0.0
2018-May-18 03:00N 59°20' E 018°05'0 0.0
2018-May-18 02:30N 59°20' E 018°05'0 0.0
2018-May-18 02:00N 59°20' E 018°05'0 0.0
2018-May-18 01:30N 59°20' E 018°05'0 0.0
2018-May-18 01:00N 59°20' E 018°05'0 0.0
2018-May-18 00:30N 59°20' E 018°05'0 0.0
2018-May-18 00:00N 59°20' E 018°05'0 0.0
2018-May-17 23:30N 59°20' E 018°05'0 0.0
2018-May-17 23:00N 59°20' E 018°05'0 0.0
2018-May-17 22:27N 59°20' E 018°05'0 0.0
2018-May-17 22:00N 59°20' E 018°05'0 0.0
2018-May-17 21:30N 59°20' E 018°05'0 0.0
2018-May-17 21:00N 59°20' E 018°05'0 0.0
2018-May-17 20:30N 59°20' E 018°05'0 0.0
2018-May-17 19:57N 59°20' E 018°05'0 0.0
2018-May-17 19:30N 59°20' E 018°05'1 2.5
2018-May-17 19:00N 59°19' E 018°07'0 0.0
2018-May-17 18:30N 59°19' E 018°07'1 1.8
2018-May-17 18:00N 59°20' E 018°05'2 4.4
2018-May-17 17:30N 59°19' E 018°10'2 4.3
2018-May-17 16:59N 59°20' E 018°05'1 2.1
2018-May-17 16:30N 59°19' E 018°07'2 3.7
2018-May-17 16:00N 59°21' E 018°09'1 2.8
2018-May-17 15:29N 59°19' E 018°10'2 4.7
2018-May-17 14:57N 59°20' E 018°05'1 2.7
2018-May-17 14:30N 59°19' E 018°07'2 3.7
2018-May-17 13:58N 59°20' E 018°09'1 2.4
2018-May-17 13:30N 59°19' E 018°10'2 4.3
2018-May-17 13:01N 59°20' E 018°05'0 0.5
2018-May-17 12:19N 59°20' E 018°05'0 0.0
2018-May-17 11:43N 59°20' E 018°05'0 0.0
2018-May-17 11:25N 59°20' E 018°05'1 3.1
2018-May-17 10:58N 59°19' E 018°07'0 0.2
2018-May-17 10:29N 59°19' E 018°07'1 2.6
2018-May-17 09:59N 59°20' E 018°05'2 4.4
2018-May-17 09:29N 59°19' E 018°09'1 3.0
2018-May-17 09:00N 59°21' E 018°09'2 3.3
2018-May-17 08:29N 59°19' E 018°07'2 3.4
2018-May-17 07:59N 59°20' E 018°05'2 3.4
2018-May-17 07:29N 59°19' E 018°07'2 3.5
2018-May-17 07:00N 59°21' E 018°08'2 3.2
2018-May-17 06:29N 59°19' E 018°10'3 5.5
2018-May-17 06:00N 59°20' E 018°05'2 4.2
2018-May-17 05:30N 59°19' E 018°08'2 3.1
2018-May-17 05:00N 59°21' E 018°09'2 3.1
2018-May-17 04:30N 59°19' E 018°08'2 3.7
2018-May-17 04:00N 59°20' E 018°05'0 0.0
2018-May-17 03:30N 59°20' E 018°05'0 0.0
2018-May-17 03:00N 59°20' E 018°05'0 0.0
2018-May-17 02:30N 59°20' E 018°05'0 0.0
2018-May-17 02:00N 59°20' E 018°05'0 0.0
2018-May-17 01:30N 59°20' E 018°05'0 0.0
2018-May-17 01:00N 59°20' E 018°05'0 0.0
2018-May-17 00:30N 59°20' E 018°05'0 0.0
2018-May-17 00:00N 59°20' E 018°05'0 0.0
2018-May-16 23:30N 59°20' E 018°05'0 0.0
2018-May-16 23:00N 59°20' E 018°05'0 0.0
2018-May-16 22:30N 59°20' E 018°05'0 0.0
2018-May-16 22:00N 59°20' E 018°05'0 0.0
2018-May-16 21:30N 59°20' E 018°05'0 0.0
2018-May-16 21:00N 59°20' E 018°05'0 0.0
2018-May-16 20:30N 59°20' E 018°05'0 0.0
2018-May-16 20:00N 59°20' E 018°05'0 0.0
2018-May-16 19:30N 59°20' E 018°05'1 2.5
2018-May-16 19:00N 59°19' E 018°07'0 0.2
2018-May-16 18:30N 59°19' E 018°07'1 2.1
2018-May-16 18:00N 59°20' E 018°05'2 4.3
2018-May-16 17:29N 59°19' E 018°09'2 4.2
2018-May-16 17:00N 59°20' E 018°06'1 1.7
2018-May-16 16:30N 59°19' E 018°07'2 3.7
2018-May-16 16:00N 59°20' E 018°09'1 2.7
2018-May-16 15:31N 59°19' E 018°10'2 4.4
2018-May-16 15:00N 59°20' E 018°05'1 2.0
2018-May-16 14:30N 59°19' E 018°07'2 3.9
2018-May-16 14:00N 59°20' E 018°09'1 2.5
2018-May-16 13:30N 59°19' E 018°10'2 4.3
2018-May-16 13:00N 59°20' E 018°05'0 0.7
2018-May-16 12:28N 59°20' E 018°05'0 0.0
2018-May-16 11:55N 59°20' E 018°05'0 0.0
2018-May-16 11:30N 59°20' E 018°05'1 2.8
2018-May-16 11:00N 59°19' E 018°07'0 0.3
2018-May-16 10:30N 59°19' E 018°07'1 2.7
2018-May-16 10:00N 59°20' E 018°05'2 4.4
2018-May-16 09:30N 59°19' E 018°09'2 3.1
2018-May-16 09:00N 59°21' E 018°09'2 3.5
2018-May-16 08:30N 59°19' E 018°07'2 3.2
2018-May-16 07:58N 59°20' E 018°05'2 3.8
2018-May-16 07:30N 59°19' E 018°07'2 3.4
2018-May-16 07:00N 59°21' E 018°08'2 3.4
2018-May-16 06:30N 59°19' E 018°10'3 5.4
2018-May-16 06:00N 59°20' E 018°05'2 4.1
2018-May-16 05:30N 59°19' E 018°08'2 3.2
2018-May-16 05:00N 59°21' E 018°08'2 3.3
2018-May-16 04:31N 59°19' E 018°08'2 3.5
2018-May-16 03:59N 59°20' E 018°05'0 0.0
2018-May-16 03:23N 59°20' E 018°05'0 0.0
2018-May-16 02:59N 59°20' E 018°05'0 0.0
2018-May-16 02:29N 59°20' E 018°05'  

Dump ship's entire track history